createdAt,value
2023-03-12T00:02:18.170Z,1.20
2023-03-12T00:04:46.717Z,1.30
2023-03-12T00:07:15.132Z,1.20
2023-03-12T00:13:11.659Z,1.10
2023-03-12T00:15:39.947Z,1.20
2023-03-12T00:18:09.536Z,0.90
2023-03-12T00:20:38.025Z,1.10
2023-03-12T00:23:06.613Z,1.00
2023-03-12T00:25:36.110Z,1.30
2023-03-12T00:28:05.912Z,0.90
2023-03-12T00:30:34.192Z,1.10
2023-03-12T00:33:04.008Z,1.00
2023-03-12T00:35:33.547Z,1.10
2023-03-12T00:38:02.189Z,1.20
2023-03-12T00:40:30.774Z,1.10
2023-03-12T00:42:59.254Z,1.30
2023-03-12T00:45:28.255Z,1.20
2023-03-12T00:47:56.518Z,1.30
2023-03-12T00:50:25.001Z,1.20
2023-03-12T00:52:53.786Z,1.50
2023-03-12T00:55:22.883Z,1.20
2023-03-12T00:57:51.364Z,1.50
2023-03-12T01:00:19.966Z,1.20
2023-03-12T01:02:48.588Z,1.20
2023-03-12T01:05:17.931Z,1.10
2023-03-12T01:07:47.949Z,1.20
2023-03-12T01:10:17.908Z,1.30
2023-03-12T01:12:47.797Z,1.60
2023-03-12T01:15:17.196Z,1.20
2023-03-12T01:17:45.517Z,1.20
2023-03-12T01:20:13.912Z,1.00
2023-03-12T01:22:42.201Z,1.00
2023-03-12T01:25:11.210Z,1.10
2023-03-12T01:27:39.802Z,1.50
2023-03-12T01:30:09.019Z,1.50
2023-03-12T01:32:38.317Z,1.60
2023-03-12T01:35:07.135Z,1.70
2023-03-12T01:37:35.451Z,1.70
2023-03-12T01:40:04.706Z,1.40
2023-03-12T01:42:34.169Z,1.60
2023-03-12T01:45:03.590Z,1.50
2023-03-12T01:47:33.465Z,1.80
2023-03-12T01:50:06.043Z,1.60
2023-03-12T01:52:36.170Z,1.40
2023-03-12T01:55:13.331Z,1.70
2023-03-12T01:57:44.281Z,2.10
2023-03-12T02:00:15.098Z,1.60
2023-03-12T02:02:45.195Z,1.80
2023-03-12T02:05:23.239Z,1.60
2023-03-12T02:07:52.232Z,1.90
2023-03-12T02:10:22.253Z,1.90
2023-03-12T02:12:50.939Z,1.70
2023-03-12T02:15:19.829Z,2.10
2023-03-12T02:17:49.226Z,1.90
2023-03-12T02:20:40.748Z,1.60
2023-03-12T02:23:14.149Z,1.90
2023-03-12T02:25:52.873Z,2.10
2023-03-12T02:28:23.814Z,2.40
2023-03-12T02:31:00.771Z,2.30
2023-03-12T02:33:30.107Z,2.40
2023-03-12T02:35:58.992Z,2.50
2023-03-12T02:38:36.575Z,2.70
2023-03-12T02:41:12.632Z,2.80
2023-03-12T02:43:46.947Z,2.80
2023-03-12T02:46:15.638Z,2.80
2023-03-12T02:48:44.575Z,2.70
2023-03-12T02:51:13.101Z,2.60
2023-03-12T02:53:41.477Z,2.90
2023-03-12T02:56:09.857Z,2.70
2023-03-12T02:58:40.588Z,2.60
2023-03-12T03:01:09.077Z,2.30
2023-03-12T03:03:37.551Z,2.40
2023-03-12T03:06:06.131Z,2.10
2023-03-12T03:08:35.459Z,2.30
2023-03-12T03:11:04.253Z,2.40
2023-03-12T03:13:33.317Z,2.30
2023-03-12T03:16:04.000Z,2.40
2023-03-12T03:18:36.228Z,2.30
2023-03-12T03:21:06.144Z,1.90
2023-03-12T03:23:38.517Z,2.60
2023-03-12T03:26:07.190Z,2.40
2023-03-12T03:28:35.566Z,2.60
2023-03-12T03:31:04.583Z,2.50
2023-03-12T03:33:37.237Z,2.50
2023-03-12T03:36:07.075Z,2.20
2023-03-12T03:38:38.498Z,1.90
2023-03-12T03:41:07.812Z,2.10
2023-03-12T03:43:41.806Z,2.20
2023-03-12T03:46:11.251Z,2.20
2023-03-12T03:48:41.434Z,1.90
2023-03-12T03:51:10.627Z,2.20
2023-03-12T03:53:41.465Z,1.90
2023-03-12T03:56:12.231Z,2.00
2023-03-12T03:58:43.237Z,1.80
2023-03-12T04:01:15.834Z,2.30
2023-03-12T04:03:44.839Z,2.10
2023-03-12T04:06:15.337Z,2.60
2023-03-12T04:08:46.592Z,2.30
2023-03-12T04:11:18.598Z,2.40
2023-03-12T04:13:47.537Z,2.20
2023-03-12T04:16:19.618Z,2.20
2023-03-12T04:18:50.227Z,1.90
2023-03-12T04:21:19.016Z,2.20
2023-03-12T04:23:49.237Z,1.90
2023-03-12T04:26:18.133Z,2.20
2023-03-12T04:28:48.143Z,2.10
2023-03-12T04:31:17.759Z,1.90
2023-03-12T04:33:51.067Z,2.10
2023-03-12T04:36:20.549Z,1.90
2023-03-12T04:38:50.565Z,1.60
2023-03-12T04:41:27.444Z,1.80
2023-03-12T04:44:12.994Z,1.90
2023-03-12T04:46:42.472Z,2.10
2023-03-12T04:49:13.060Z,2.10
2023-03-12T04:51:42.056Z,2.10
2023-03-12T04:54:12.790Z,2.00
2023-03-12T04:56:41.993Z,2.10
2023-03-12T04:59:11.497Z,1.70
2023-03-12T05:01:41.207Z,1.80
2023-03-12T05:04:14.317Z,1.80
2023-03-12T05:06:43.182Z,2.20
2023-03-12T05:09:13.718Z,2.20
2023-03-12T05:11:42.495Z,2.00
2023-03-12T05:14:14.460Z,1.70
2023-03-12T05:16:43.731Z,1.60
2023-03-12T05:19:12.441Z,2.00
2023-03-12T05:21:42.762Z,1.90
2023-03-12T05:24:11.047Z,2.00
2023-03-12T05:26:39.831Z,1.50
2023-03-12T05:29:27.049Z,1.90
2023-03-12T05:31:55.572Z,1.60
2023-03-12T05:34:24.120Z,1.80
2023-03-12T05:36:53.923Z,2.00
2023-03-12T05:39:25.480Z,2.30
2023-03-12T05:41:57.269Z,2.10
2023-03-12T05:44:27.463Z,2.10
2023-03-12T05:46:58.795Z,2.20
2023-03-12T05:49:30.559Z,2.00
2023-03-12T05:51:59.353Z,2.10
2023-03-12T05:54:27.835Z,2.40
2023-03-12T05:56:56.928Z,2.70
2023-03-12T05:59:26.740Z,2.10
2023-03-12T06:01:55.329Z,2.10
2023-03-12T06:04:24.615Z,2.40
2023-03-12T06:06:54.626Z,2.00
2023-03-12T06:09:23.722Z,2.20
2023-03-12T06:11:52.099Z,2.30
2023-03-12T06:14:20.886Z,2.50
2023-03-12T06:16:51.901Z,2.40
2023-03-12T06:19:20.514Z,2.50
2023-03-12T06:21:56.697Z,2.20
2023-03-12T06:24:25.768Z,2.40
2023-03-12T06:27:02.948Z,2.00
2023-03-12T06:29:31.735Z,2.10
2023-03-12T06:32:00.645Z,2.30
2023-03-12T06:34:35.250Z,2.50
2023-03-12T06:37:04.254Z,2.00
2023-03-12T06:39:32.527Z,2.10
2023-03-12T06:42:01.411Z,1.90
2023-03-12T06:44:30.406Z,1.90
2023-03-12T06:46:59.597Z,1.90
2023-03-12T06:49:32.311Z,2.10
2023-03-12T06:52:00.759Z,1.90
2023-03-12T06:54:30.773Z,2.10
2023-03-12T06:57:02.019Z,1.80
2023-03-12T06:59:30.605Z,1.90
2023-03-12T07:01:59.346Z,2.10
2023-03-12T07:04:27.871Z,1.60
2023-03-12T07:06:56.251Z,1.80
2023-03-12T07:09:28.633Z,1.70
2023-03-12T07:11:58.228Z,1.80
2023-03-12T07:14:27.017Z,1.80
2023-03-12T07:17:02.566Z,1.40
2023-03-12T07:19:32.304Z,1.50
2023-03-12T07:22:01.075Z,1.80
2023-03-12T07:27:00.692Z,1.70
2023-03-12T07:29:29.478Z,1.70
2023-03-12T07:31:58.059Z,1.90
2023-03-12T07:34:26.812Z,1.70
2023-03-12T07:36:58.507Z,1.70
2023-03-12T07:39:26.905Z,2.00
2023-03-12T07:41:55.481Z,1.70
2023-03-12T07:44:26.601Z,1.80
2023-03-12T07:46:55.109Z,1.60
2023-03-12T07:49:26.698Z,1.70
2023-03-12T07:51:55.445Z,1.60
2023-03-12T07:54:30.932Z,1.80
2023-03-12T07:56:59.950Z,1.90
2023-03-12T07:59:28.514Z,1.70
2023-03-12T08:01:57.039Z,2.10
2023-03-12T08:04:25.454Z,1.50
2023-03-12T08:06:57.510Z,1.60
2023-03-12T08:09:26.153Z,1.30
2023-03-12T08:11:54.468Z,1.40
2023-03-12T08:14:22.875Z,1.60
2023-03-12T08:16:53.742Z,1.30
2023-03-12T08:19:25.088Z,1.60
2023-03-12T08:21:54.291Z,1.50
2023-03-12T08:24:22.867Z,1.30
2023-03-12T08:26:51.163Z,1.80
2023-03-12T08:29:20.545Z,1.50
2023-03-12T08:32:03.662Z,1.80
2023-03-12T08:34:34.071Z,1.50
2023-03-12T08:37:03.198Z,1.50
2023-03-12T08:39:31.670Z,1.70
2023-03-12T08:42:01.484Z,1.10
2023-03-12T08:44:30.374Z,1.50
2023-03-12T08:46:58.980Z,1.80
2023-03-12T08:49:27.453Z,1.30
2023-03-12T08:51:55.928Z,1.30
2023-03-12T08:54:24.502Z,1.50
2023-03-12T08:56:53.028Z,1.40
2023-03-12T08:59:23.715Z,1.60
2023-03-12T09:01:52.712Z,1.40
2023-03-12T09:04:21.958Z,1.50
2023-03-12T09:06:50.284Z,1.70
2023-03-12T09:09:18.765Z,1.60
2023-03-12T09:11:47.450Z,1.80
2023-03-12T09:17:10.078Z,2.00
2023-03-12T09:19:39.947Z,1.60
2023-03-12T09:22:10.148Z,1.80
2023-03-12T09:24:38.726Z,1.80
2023-03-12T09:27:07.003Z,1.80
2023-03-12T09:29:41.390Z,1.70
2023-03-12T09:32:17.002Z,2.00
2023-03-12T09:34:45.959Z,1.30
2023-03-12T09:37:15.603Z,1.50
2023-03-12T09:39:44.086Z,2.00
2023-03-12T09:42:20.821Z,1.80
2023-03-12T09:44:49.197Z,1.50
2023-03-12T09:47:53.518Z,1.60
2023-03-12T09:50:35.822Z,2.00
2023-03-12T09:53:12.393Z,1.80
2023-03-12T09:55:45.688Z,1.60
2023-03-12T09:58:23.179Z,1.90
2023-03-12T10:03:53.317Z,1.80
2023-03-12T10:08:54.990Z,1.80
2023-03-12T10:11:55.117Z,1.70
2023-03-12T10:14:43.161Z,1.60
2023-03-12T10:17:17.051Z,1.90
2023-03-12T10:19:58.283Z,1.70
2023-03-12T10:22:45.590Z,1.50
2023-03-12T10:25:27.556Z,2.10
2023-03-12T10:28:01.366Z,1.50
2023-03-12T10:30:29.845Z,1.60
2023-03-12T10:33:04.577Z,1.50
2023-03-12T10:35:33.105Z,1.70
2023-03-12T10:38:04.732Z,1.70
2023-03-12T10:40:37.178Z,1.60
2023-03-12T10:43:07.607Z,1.60
2023-03-12T10:45:37.926Z,1.60
2023-03-12T10:48:08.971Z,1.70
2023-03-12T10:50:38.372Z,1.40
2023-03-12T10:53:30.066Z,1.50
2023-03-12T10:58:41.596Z,1.70
2023-03-12T11:01:23.210Z,1.30
2023-03-12T11:03:52.501Z,1.40
2023-03-12T11:06:28.363Z,1.60
2023-03-12T11:09:16.712Z,1.60
2023-03-12T11:11:47.938Z,1.80
2023-03-12T11:14:27.267Z,1.60
2023-03-12T11:16:56.981Z,1.60
2023-03-12T11:19:32.754Z,1.80
2023-03-12T11:22:09.091Z,1.60
2023-03-12T11:24:41.974Z,1.50
2023-03-12T11:27:37.589Z,1.60
2023-03-12T11:30:07.594Z,1.80
2023-03-12T11:32:45.129Z,1.40
2023-03-12T11:35:15.321Z,1.30
2023-03-12T11:38:08.886Z,1.20
2023-03-12T11:41:00.833Z,2.20
2023-03-12T11:43:47.933Z,1.60
2023-03-12T11:47:01.576Z,1.50
2023-03-12T11:49:41.318Z,1.60
2023-03-12T11:52:09.901Z,1.00
2023-03-12T11:54:49.132Z,1.70
2023-03-12T11:57:36.560Z,1.60
2023-03-12T12:00:23.242Z,1.80
2023-03-12T12:03:27.574Z,7.40
2023-03-12T12:05:55.968Z,12.60
2023-03-12T12:08:30.183Z,20.40
2023-03-12T12:11:08.716Z,20.60
2023-03-12T12:14:12.006Z,14.80
2023-03-12T12:17:06.174Z,8.60
2023-03-12T12:19:52.171Z,5.40
2023-03-12T12:22:30.588Z,4.40
2023-03-12T12:25:02.236Z,3.50
2023-03-12T12:27:44.856Z,5.40
2023-03-12T12:30:23.057Z,5.10
2023-03-12T12:33:15.806Z,6.80
2023-03-12T12:35:45.121Z,4.00
2023-03-12T12:38:23.414Z,8.80
2023-03-12T12:40:53.543Z,7.00
2023-03-12T12:43:32.977Z,7.30
2023-03-12T12:46:07.098Z,5.10
2023-03-12T12:48:38.473Z,4.90
2023-03-12T12:51:08.930Z,6.30
2023-03-12T12:54:01.203Z,5.00
2023-03-12T12:56:40.640Z,11.40
2023-03-12T12:59:44.413Z,5.80
2023-03-12T13:02:20.407Z,4.60
2023-03-12T13:04:49.196Z,3.10
2023-03-12T13:07:20.104Z,4.30
2023-03-12T13:09:53.528Z,3.40
2023-03-12T13:12:33.573Z,5.00
2023-03-12T13:15:03.080Z,8.40
2023-03-12T13:17:35.565Z,8.20
2023-03-12T13:20:11.308Z,8.50
2023-03-12T13:23:01.604Z,6.80
2023-03-12T13:25:45.855Z,3.90
2023-03-12T13:28:32.940Z,3.80
2023-03-12T13:31:23.857Z,4.00
2023-03-12T13:33:53.627Z,3.40
2023-03-12T13:36:29.229Z,3.30
2023-03-12T13:39:00.495Z,2.40
2023-03-12T13:41:39.101Z,2.10
2023-03-12T13:44:23.446Z,1.20
2023-03-12T13:47:23.475Z,1.50
2023-03-12T13:50:00.258Z,1.20
2023-03-12T13:52:40.717Z,1.60
2023-03-12T13:55:21.965Z,1.20
2023-03-12T13:57:51.703Z,2.00
2023-03-12T14:00:40.667Z,1.80
2023-03-12T14:03:20.834Z,2.30
2023-03-12T14:06:05.463Z,2.00
2023-03-12T14:09:24.427Z,1.60
2023-03-12T14:12:09.358Z,1.80
2023-03-12T14:14:58.050Z,1.80
2023-03-12T14:17:29.805Z,1.10
2023-03-12T14:19:58.396Z,1.60
2023-03-12T14:22:29.804Z,1.60
2023-03-12T14:24:59.546Z,1.40
2023-03-12T14:27:33.463Z,1.80
2023-03-12T14:30:11.808Z,1.30
2023-03-12T14:32:40.163Z,1.70
2023-03-12T14:35:41.842Z,2.60
2023-03-12T14:38:18.169Z,3.90
2023-03-12T14:41:01.306Z,3.10
2023-03-12T14:43:34.698Z,2.80
2023-03-12T14:46:05.083Z,2.50
2023-03-12T14:48:36.573Z,2.70
2023-03-12T14:51:28.847Z,2.70
2023-03-12T14:53:57.717Z,2.40
2023-03-12T14:56:31.198Z,3.70
2023-03-12T14:59:01.736Z,2.60
2023-03-12T15:01:31.366Z,1.60
2023-03-12T15:04:01.585Z,1.10
2023-03-12T15:06:32.079Z,1.40
2023-03-12T15:09:04.443Z,1.00
2023-03-12T15:11:34.889Z,1.30
2023-03-12T15:14:06.646Z,1.50
2023-03-12T15:16:38.956Z,1.60
2023-03-12T15:19:07.399Z,1.90
2023-03-12T15:21:36.070Z,1.70
2023-03-12T15:24:04.505Z,1.20
2023-03-12T15:26:38.265Z,1.50
2023-03-12T15:29:27.078Z,1.80
2023-03-12T15:31:57.476Z,1.80
2023-03-12T15:34:33.255Z,2.60
2023-03-12T15:37:03.039Z,1.90
2023-03-12T15:39:33.455Z,3.70
2023-03-12T15:42:07.796Z,5.40
2023-03-12T15:44:55.157Z,5.80
2023-03-12T15:47:25.556Z,2.40
2023-03-12T15:49:58.443Z,2.80
2023-03-12T15:52:32.170Z,1.90
2023-03-12T15:55:02.808Z,1.70
2023-03-12T15:57:34.339Z,1.30
2023-03-12T16:00:14.652Z,1.00
2023-03-12T16:02:57.458Z,1.50
2023-03-12T16:05:37.171Z,1.40
2023-03-12T16:10:55.761Z,1.60
2023-03-12T16:13:28.639Z,1.50
2023-03-12T16:15:59.862Z,1.40
2023-03-12T16:18:28.351Z,1.30
2023-03-12T16:20:56.756Z,1.20
2023-03-12T16:23:25.211Z,1.50
2023-03-12T16:25:54.718Z,1.50
2023-03-12T16:28:24.022Z,1.30
2023-03-12T16:30:52.712Z,1.70
2023-03-12T16:33:22.681Z,2.10
2023-03-12T16:35:51.789Z,1.50
2023-03-12T16:38:20.427Z,2.40
2023-03-12T16:40:54.601Z,1.00
2023-03-12T16:43:24.416Z,2.50
2023-03-12T16:45:53.237Z,2.30
2023-03-12T16:48:24.310Z,2.00
2023-03-12T16:50:57.051Z,2.70
2023-03-12T16:53:25.501Z,2.80
2023-03-12T16:55:59.898Z,2.10
2023-03-12T16:58:31.070Z,2.80
2023-03-12T17:01:00.216Z,4.10
2023-03-12T17:03:36.738Z,4.30
2023-03-12T17:06:08.210Z,5.10
2023-03-12T17:08:37.273Z,4.70
2023-03-12T17:11:17.530Z,6.20
2023-03-12T17:13:47.239Z,5.50
2023-03-12T17:16:15.867Z,6.00
2023-03-12T17:18:56.982Z,6.10
2023-03-12T17:21:26.202Z,5.80
2023-03-12T17:23:59.090Z,5.80
2023-03-12T17:26:27.790Z,5.90
2023-03-12T17:28:56.353Z,6.20
2023-03-12T17:31:25.050Z,6.60
2023-03-12T17:33:54.242Z,6.30
2023-03-12T17:36:23.953Z,6.90
2023-03-12T17:38:52.432Z,6.10
2023-03-12T17:41:26.390Z,6.50
2023-03-12T17:44:00.040Z,6.60
2023-03-12T17:49:01.198Z,5.10
2023-03-12T17:51:29.980Z,5.60
2023-03-12T17:53:58.366Z,5.70
2023-03-12T17:56:26.840Z,5.80
2023-03-12T17:58:55.215Z,6.90
2023-03-12T18:01:24.335Z,7.40
2023-03-12T18:03:53.201Z,6.80
2023-03-12T18:06:26.090Z,8.30
2023-03-12T18:08:55.078Z,8.40
2023-03-12T18:11:23.606Z,7.20
2023-03-12T18:13:54.598Z,7.70
2023-03-12T18:16:24.097Z,8.70
2023-03-12T18:18:53.121Z,7.40
2023-03-12T18:21:22.006Z,7.50
2023-03-12T18:23:51.182Z,7.80
2023-03-12T18:26:21.504Z,7.50
2023-03-12T18:28:50.406Z,7.90
2023-03-12T18:31:19.042Z,6.70
2023-03-12T18:33:51.872Z,6.50
2023-03-12T18:36:20.557Z,6.20
2023-03-12T18:38:53.643Z,6.30
2023-03-12T18:41:22.026Z,6.10
2023-03-12T18:43:50.402Z,6.70
2023-03-12T18:46:19.379Z,5.40
2023-03-12T18:48:47.775Z,5.10
2023-03-12T18:51:16.454Z,4.40
2023-03-12T18:53:47.597Z,4.40
2023-03-12T18:56:16.186Z,3.40
2023-03-12T18:58:47.328Z,3.40
2023-03-12T19:01:15.802Z,3.60
2023-03-12T19:03:45.689Z,3.50
2023-03-12T19:06:15.874Z,4.00
2023-03-12T19:08:47.796Z,4.30
2023-03-12T19:11:17.429Z,3.70
2023-03-12T19:13:49.776Z,4.00
2023-03-12T19:16:22.173Z,4.20
2023-03-12T19:18:51.142Z,4.90
2023-03-12T19:21:19.413Z,4.80
2023-03-12T19:23:48.008Z,4.50
2023-03-12T19:26:16.687Z,4.50
2023-03-12T19:28:45.164Z,4.00
2023-03-12T19:31:15.614Z,3.30
2023-03-12T19:33:45.110Z,3.80
2023-03-12T19:36:14.001Z,3.30
2023-03-12T19:38:42.667Z,2.60
2023-03-12T19:41:11.873Z,2.30
2023-03-12T19:43:42.086Z,2.80
2023-03-12T19:46:10.548Z,3.20
2023-03-12T19:48:42.737Z,2.20
2023-03-12T19:51:11.727Z,2.00
2023-03-12T19:53:40.509Z,1.80
2023-03-12T19:56:08.992Z,1.50
2023-03-12T19:58:38.297Z,1.60
2023-03-12T20:01:06.873Z,1.70
2023-03-12T20:03:35.310Z,1.70
2023-03-12T20:06:04.554Z,2.70
2023-03-12T20:08:33.033Z,2.30
2023-03-12T20:11:05.687Z,2.00
2023-03-12T20:13:40.337Z,1.90
2023-03-12T20:16:09.167Z,1.60
2023-03-12T20:18:38.324Z,1.80
2023-03-12T20:21:07.002Z,1.70
2023-03-12T20:23:35.385Z,1.90
2023-03-12T20:26:05.199Z,1.90
2023-03-12T20:28:33.888Z,1.80
2023-03-12T20:31:12.855Z,2.00
2023-03-12T20:33:43.845Z,2.30
2023-03-12T20:36:13.239Z,2.20
2023-03-12T20:38:43.003Z,2.40
2023-03-12T20:41:14.508Z,2.50
2023-03-12T20:43:43.009Z,2.10
2023-03-12T20:46:12.365Z,2.60
2023-03-12T20:48:43.643Z,2.20
2023-03-12T20:54:35.589Z,2.60
2023-03-12T20:57:03.965Z,2.40
2023-03-12T20:59:32.704Z,2.40
2023-03-12T21:02:01.073Z,2.00
2023-03-12T21:04:30.142Z,4.00
2023-03-12T21:07:03.746Z,2.90
2023-03-12T21:09:33.032Z,2.10
2023-03-12T21:12:01.819Z,2.30
2023-03-12T21:14:30.602Z,2.00
2023-03-12T21:16:59.230Z,2.40
2023-03-12T21:19:31.660Z,2.40
2023-03-12T21:22:01.123Z,2.70
2023-03-12T21:24:29.747Z,2.80
2023-03-12T21:26:58.328Z,2.80
2023-03-12T21:29:26.707Z,2.20
2023-03-12T21:31:55.413Z,5.20
2023-03-12T21:34:23.771Z,4.30
2023-03-12T21:36:52.373Z,3.70
2023-03-12T21:39:23.910Z,4.10
2023-03-12T21:41:52.182Z,3.50
2023-03-12T21:44:25.168Z,3.00
2023-03-12T21:46:54.325Z,2.70
2023-03-12T21:49:22.840Z,2.80
2023-03-12T21:51:52.349Z,3.00
2023-03-12T21:54:20.722Z,2.30
2023-03-12T21:56:54.530Z,3.00
2023-03-12T21:59:23.326Z,2.60
2023-03-12T22:01:51.866Z,2.90
2023-03-12T22:04:21.268Z,2.70
2023-03-12T22:06:50.428Z,3.00
2023-03-12T22:09:19.490Z,3.00
2023-03-12T22:11:47.870Z,3.60
2023-03-12T22:14:16.460Z,7.70
2023-03-12T22:16:46.064Z,5.50
2023-03-12T22:19:14.754Z,3.80
2023-03-12T22:21:43.362Z,3.50
2023-03-12T22:24:12.930Z,3.60
2023-03-12T22:26:41.320Z,3.40
2023-03-12T22:29:16.473Z,3.40
2023-03-12T22:31:45.749Z,3.60
2023-03-12T22:34:15.864Z,4.00
2023-03-12T22:36:44.351Z,3.00
2023-03-12T22:39:12.829Z,3.80
2023-03-12T22:41:41.409Z,3.30
2023-03-12T22:44:09.853Z,3.00
2023-03-12T22:46:43.330Z,3.40
2023-03-12T22:49:12.007Z,3.00
2023-03-12T22:51:40.449Z,3.40
2023-03-12T22:54:09.240Z,3.00
2023-03-12T22:56:37.725Z,3.60
2023-03-12T22:59:06.713Z,3.30
2023-03-12T23:01:35.312Z,3.40
2023-03-12T23:04:06.648Z,3.40
2023-03-12T23:06:34.920Z,3.30
2023-03-12T23:09:03.395Z,3.10
2023-03-12T23:11:36.382Z,3.30
2023-03-12T23:14:04.764Z,3.00
2023-03-12T23:16:33.395Z,2.70
2023-03-12T23:19:02.646Z,3.00
2023-03-12T23:21:32.360Z,3.40
2023-03-12T23:24:02.782Z,3.00
2023-03-12T23:26:34.126Z,3.50
2023-03-12T23:29:02.502Z,3.30
2023-03-12T23:31:31.172Z,3.00
2023-03-12T23:33:59.468Z,3.60
2023-03-12T23:36:32.248Z,3.70
2023-03-12T23:39:00.634Z,3.40
2023-03-12T23:41:32.274Z,3.30
2023-03-12T23:47:26.302Z,3.10
2023-03-12T23:49:55.069Z,2.40
2023-03-12T23:52:26.653Z,3.60
2023-03-12T23:54:55.815Z,3.10
2023-03-12T23:57:24.402Z,3.40
2023-03-12T23:59:54.036Z,3.00
